Time;durP1;ratioP1;P1;durP2;ratioP2;P2;SDS_P1;SDS_P2;PMS_P1;PMS_P2;Temp;Humidity;BMP_temperature;BMP_pressure;BME280_temperature;BME280_humidity;BME280_pressure;Samples;Min_cycle;Max_cycle;Signal;HPM_P1;HPM_P2
2021/12/28 00:01:43;;;;;;;114.23;10.57;;;;;;;0.31;100.00;98786.28;5114161;28;20225;-67
2021/12/28 00:04:12;;;;;;;149.97;12.80;;;;;;;0.33;100.00;98788.75;5113851;28;20201;-58
2021/12/28 00:06:39;;;;;;;144.20;12.77;;;;;;;0.32;100.00;98792.13;5113603;28;20479;-58
2021/12/28 00:09:05;;;;;;;97.93;11.73;;;;;;;0.40;100.00;98800.22;5113569;28;20451;-58
2021/12/28 00:11:32;;;;;;;149.03;12.37;;;;;;;0.47;100.00;98796.63;5113774;28;20233;-58
2021/12/28 00:14:01;;;;;;;151.53;12.03;;;;;;;0.47;100.00;98790.75;5113459;28;20201;-58
2021/12/28 00:16:32;;;;;;;211.33;13.23;;;;;;;0.49;100.00;98789.84;5113629;28;20314;-58
2021/12/28 00:19:00;;;;;;;92.43;10.43;;;;;;;0.54;100.00;98797.22;5113628;28;20453;-58
2021/12/28 00:21:29;;;;;;;197.33;12.93;;;;;;;0.54;100.00;98798.03;5113306;28;20225;-58
2021/12/28 00:23:57;;;;;;;119.63;11.13;;;;;;;0.51;100.00;98803.19;5113287;28;20197;-58
2021/12/28 00:26:24;;;;;;;276.93;18.13;;;;;;;0.51;100.00;98807.41;5113736;28;20225;-67
2021/12/28 00:28:52;;;;;;;254.87;14.97;;;;;;;0.43;100.00;98802.63;5113152;28;20206;-58
2021/12/28 00:31:22;;;;;;;238.33;15.57;;;;;;;0.56;100.00;98800.53;5113224;28;20630;-66
2021/12/28 00:33:49;;;;;;;158.20;12.27;;;;;;;0.56;100.00;98793.78;5113488;28;20508;-58
2021/12/28 00:36:16;;;;;;;108.57;9.93;;;;;;;0.60;100.00;98797.81;5113600;28;20228;-58
2021/12/28 00:38:44;;;;;;;190.83;13.10;;;;;;;0.54;100.00;98798.03;5113309;28;20640;-58
2021/12/28 00:41:12;;;;;;;190.87;13.10;;;;;;;0.54;100.00;98803.06;5113256;28;20218;-57
2021/12/28 00:43:40;;;;;;;167.30;13.67;;;;;;;0.55;100.00;98804.69;5112907;28;20209;-59
2021/12/28 00:46:09;;;;;;;263.93;16.47;;;;;;;0.41;100.00;98806.91;5113191;28;20482;-57
2021/12/28 00:48:37;;;;;;;169.37;13.67;;;;;;;0.51;100.00;98808.22;5112819;28;20200;-68
2021/12/28 00:51:04;;;;;;;237.83;14.70;;;;;;;0.53;100.00;98806.47;5112845;28;20262;-68
2021/12/28 00:53:31;;;;;;;197.17;15.00;;;;;;;0.50;100.00;98810.81;5112750;28;20713;-66
2021/12/28 00:55:59;;;;;;;215.90;14.47;;;;;;;0.55;100.00;98808.91;5112499;28;20224;-59
2021/12/28 00:58:27;;;;;;;176.17;13.97;;;;;;;0.59;100.00;98801.22;5112620;28;20443;-59
2021/12/28 01:00:54;;;;;;;180.87;14.53;;;;;;;0.55;100.00;98798.84;5112665;28;20621;-68
2021/12/28 01:03:21;;;;;;;252.50;16.33;;;;;;;0.50;100.00;98799.03;5112706;28;20192;-57
2021/12/28 01:05:48;;;;;;;276.07;16.57;;;;;;;0.55;100.00;98797.16;5112380;28;20718;-59
2021/12/28 01:08:15;;;;;;;287.10;16.63;;;;;;;0.54;100.00;98793.00;5112713;28;20678;-60
2021/12/28 01:10:45;;;;;;;276.70;17.17;;;;;;;0.51;100.00;98795.63;5112291;28;20237;-68
2021/12/28 01:13:14;;;;;;;180.40;14.00;;;;;;;0.34;100.00;98795.41;5112435;28;20190;-68
2021/12/28 01:15:41;;;;;;;199.73;15.63;;;;;;;0.34;100.00;98781.16;5112106;28;20228;-59
2021/12/28 01:18:09;;;;;;;215.17;16.37;;;;;;;0.40;100.00;98790.16;5112241;28;20459;-68
2021/12/28 01:20:36;;;;;;;234.87;16.57;;;;;;;0.47;100.00;98781.56;5112272;28;20218;-68
2021/12/28 01:23:03;;;;;;;272.00;17.97;;;;;;;0.44;100.00;98781.66;5112215;28;20461;-68
2021/12/28 01:25:30;;;;;;;113.67;13.17;;;;;;;0.28;100.00;98785.59;5112174;28;20213;-59
2021/12/28 01:27:57;;;;;;;182.47;15.30;;;;;;;0.25;100.00;98789.03;5112149;28;20983;-59
2021/12/28 01:30:28;;;;;;;94.53;10.03;;;;;;;0.30;100.00;98783.84;5111915;28;20201;-67
2021/12/28 01:32:58;;;;;;;150.17;13.10;;;;;;;0.31;100.00;98776.22;5112043;28;20247;-59
2021/12/28 01:35:25;;;;;;;101.13;11.33;;;;;;;0.38;100.00;98772.63;5112238;28;20225;-59
2021/12/28 01:37:52;;;;;;;159.70;14.53;;;;;;;0.42;100.00;98778.38;5111985;28;20454;-59
2021/12/28 01:40:23;;;;;;;85.57;10.57;;;;;;;0.40;100.00;98778.41;5111818;28;20671;-67
2021/12/28 01:42:59;;;;;;;51.83;9.87;;;;;;;0.39;100.00;98778.47;5112107;28;20443;-67
2021/12/28 01:45:40;;;;;;;87.13;11.33;;;;;;;0.43;100.00;98772.47;5111699;28;20459;-67
2021/12/28 01:48:08;;;;;;;84.03;10.17;;;;;;;0.41;100.00;98776.75;5111904;28;20197;-59
2021/12/28 01:50:36;;;;;;;120.63;12.17;;;;;;;0.42;100.00;98770.81;5111574;28;20482;-68
2021/12/28 01:53:05;;;;;;;64.87;9.83;;;;;;;0.37;100.00;98780.22;5111690;28;20459;-59
2021/12/28 01:55:32;;;;;;;70.17;9.43;;;;;;;0.35;100.00;98787.00;5111469;28;20240;-59
2021/12/28 01:57:59;;;;;;;167.30;14.17;;;;;;;0.34;100.00;98790.38;5111544;28;20439;-68
2021/12/28 02:00:26;;;;;;;127.73;11.50;;;;;;;0.37;100.00;98775.19;5111671;28;20466;-67
2021/12/28 02:02:55;;;;;;;51.57;8.37;;;;;;;0.51;100.00;98782.25;5111648;28;20279;-59
2021/12/28 02:05:22;;;;;;;89.80;10.40;;;;;;;0.53;100.00;98776.28;5111477;28;20462;-68
2021/12/28 02:07:49;;;;;;;90.17;10.00;;;;;;;0.51;100.00;98773.00;5111089;28;20216;-59
2021/12/28 02:10:16;;;;;;;69.03;9.57;;;;;;;0.53;100.00;98773.78;5111522;28;20197;-59
2021/12/28 02:12:42;;;;;;;77.30;8.67;;;;;;;0.51;100.00;98777.22;5111671;28;20628;-67
2021/12/28 02:15:13;;;;;;;104.13;10.03;;;;;;;0.46;100.00;98777.38;5111071;28;20631;-59
2021/12/28 02:17:41;;;;;;;41.97;7.87;;;;;;;0.47;100.00;98775.66;5111388;28;20205;-59
2021/12/28 02:20:12;;;;;;;81.73;9.40;;;;;;;0.52;100.00;98769.59;5111533;28;20205;-66
2021/12/28 02:22:39;;;;;;;61.37;9.07;;;;;;;0.52;100.00;98772.13;5111325;28;20274;-68
2021/12/28 02:25:08;;;;;;;96.43;11.50;;;;;;;0.43;100.00;98770.75;5111066;28;20461;-68
2021/12/28 02:27:35;;;;;;;101.27;10.40;;;;;;;0.42;100.00;98758.25;5111489;28;20208;-59
2021/12/28 02:30:03;;;;;;;83.30;9.30;;;;;;;0.48;100.00;98758.03;5111198;28;20232;-67
2021/12/28 02:32:30;;;;;;;92.87;9.43;;;;;;;0.50;100.00;98760.50;5111199;28;20721;-68
2021/12/28 02:34:58;;;;;;;75.37;8.50;;;;;;;0.32;100.00;98761.97;5111105;28;20200;-67
2021/12/28 02:37:27;;;;;;;84.10;7.50;;;;;;;0.46;100.00;98739.66;5110948;28;20216;-67
2021/12/28 02:39:54;;;;;;;48.57;8.00;;;;;;;0.47;100.00;98751.38;5110912;28;20466;-59
2021/12/28 02:42:23;;;;;;;20.03;6.07;;;;;;;0.38;100.00;98739.13;5111293;28;20525;-59
2021/12/28 02:44:57;;;;;;;22.30;5.87;;;;;;;0.45;100.00;98753.94;5111234;28;20459;-68
2021/12/28 02:47:24;;;;;;;17.17;6.70;;;;;;;0.41;100.00;98764.97;5111007;28;20470;-59
2021/12/28 02:49:51;;;;;;;24.07;6.47;;;;;;;0.41;100.00;98749.06;5111024;28;20455;-67
2021/12/28 02:52:18;;;;;;;18.37;5.97;;;;;;;0.45;100.00;98743.06;5111043;28;20221;-68
2021/12/28 02:54:47;;;;;;;27.30;6.43;;;;;;;0.60;100.00;98747.50;5111090;28;20204;-68
2021/12/28 02:57:14;;;;;;;15.10;5.17;;;;;;;0.55;100.00;98743.53;5111099;28;20859;-67
2021/12/28 02:59:49;;;;;;;18.90;5.83;;;;;;;0.40;100.00;98752.44;5110974;28;20447;-59
2021/12/28 03:02:16;;;;;;;29.97;5.83;;;;;;;0.46;100.00;98752.22;5111018;28;20477;-59
2021/12/28 03:04:43;;;;;;;24.83;5.97;;;;;;;0.45;100.00;98758.13;5111245;28;20835;-67
2021/12/28 03:07:10;;;;;;;29.90;6.30;;;;;;;0.47;100.00;98755.56;5110773;28;20225;-59
2021/12/28 03:09:37;;;;;;;24.33;5.80;;;;;;;0.54;100.00;98757.81;5110785;28;20208;-59
2021/12/28 03:12:07;;;;;;;39.80;7.67;;;;;;;0.55;100.00;98753.59;5110644;28;20232;-68
2021/12/28 03:14:34;;;;;;;43.50;7.90;;;;;;;0.59;100.00;98755.94;5110692;28;20197;-67
2021/12/28 03:17:01;;;;;;;38.10;7.77;;;;;;;0.63;100.00;98767.53;5110901;28;20232;-60
2021/12/28 03:19:28;;;;;;;86.57;9.33;;;;;;;0.61;100.00;98778.50;5110864;28;20205;-66
2021/12/28 03:21:55;;;;;;;34.10;7.33;;;;;;;0.55;100.00;98779.56;5114726;28;20221;-67
2021/12/28 03:24:21;;;;;;;116.93;11.13;;;;;;;0.55;100.00;98769.50;5114427;27;21001;-66
2021/12/28 03:26:48;;;;;;;101.67;10.43;;;;;;;0.67;100.00;98764.03;5114553;28;20232;-63
2021/12/28 03:29:17;;;;;;;152.43;11.67;;;;;;;0.63;100.00;98772.56;5114727;27;20197;-67
2021/12/28 03:31:44;;;;;;;212.90;14.07;;;;;;;0.64;100.00;98771.69;5114538;28;20240;-59
2021/12/28 03:34:11;;;;;;;113.63;9.50;;;;;;;0.72;100.00;98768.06;5114308;28;20596;-59
2021/12/28 03:36:37;;;;;;;74.87;8.47;;;;;;;0.66;100.00;98764.06;5114394;28;20218;-59
2021/12/28 03:39:05;;;;;;;57.50;7.97;;;;;;;0.50;100.00;98760.50;5114276;28;20193;-59
2021/12/28 03:41:32;;;;;;;130.80;10.57;;;;;;;0.57;100.00;98762.72;5114124;28;20481;-68
2021/12/28 03:44:00;;;;;;;93.77;9.17;;;;;;;0.65;100.00;98755.72;5114360;28;20201;-59
2021/12/28 03:46:30;;;;;;;73.53;8.53;;;;;;;0.74;100.00;98764.63;5114541;28;20217;-59
2021/12/28 03:48:57;;;;;;;46.97;7.37;;;;;;;0.74;100.00;98756.25;5114106;27;20842;-68
2021/12/28 03:51:24;;;;;;;98.17;9.03;;;;;;;0.78;100.00;98757.75;5114181;28;20220;-67
2021/12/28 03:53:51;;;;;;;124.40;9.73;;;;;;;0.79;100.00;98766.97;5113984;28;20670;-59
2021/12/28 03:56:19;;;;;;;79.63;8.87;;;;;;;0.85;100.00;98756.66;5114016;28;20217;-68
2021/12/28 03:58:46;;;;;;;122.97;10.70;;;;;;;0.83;100.00;98765.97;5114242;28;20208;-59
2021/12/28 04:01:21;;;;;;;63.93;7.77;;;;;;;0.85;100.00;98774.28;5114172;28;20244;-59
2021/12/28 04:03:50;;;;;;;117.20;9.33;;;;;;;0.88;100.00;98771.66;5113989;28;20203;-68
2021/12/28 04:06:19;;;;;;;125.77;10.17;;;;;;;0.83;100.00;98768.47;5113749;28;20213;-59
2021/12/28 04:08:47;;;;;;;106.50;9.80;;;;;;;0.82;100.00;98769.38;5113883;28;20193;-59
2021/12/28 04:11:16;;;;;;;89.80;9.80;;;;;;;0.87;100.00;98770.84;5113654;28;20482;-59
2021/12/28 04:13:44;;;;;;;351.27;18.17;;;;;;;0.92;100.00;98763.09;5113791;27;20293;-68
2021/12/28 04:16:11;;;;;;;206.73;13.27;;;;;;;0.89;100.00;98764.03;5113420;28;20732;-68
2021/12/28 04:18:38;;;;;;;263.77;16.17;;;;;;;0.95;100.00;98757.94;5113760;28;20209;-59
2021/12/28 04:21:07;;;;;;;63.03;7.53;;;;;;;0.92;100.00;98759.75;5113428;28;20217;-59
2021/12/28 04:23:34;;;;;;;186.10;12.60;;;;;;;0.92;100.00;98762.28;5113683;28;20270;-59
2021/12/28 04:26:01;;;;;;;92.07;10.40;;;;;;;0.84;100.00;98770.09;5113541;28;20221;-67
2021/12/28 04:28:28;;;;;;;269.70;15.33;;;;;;;0.92;100.00;98768.13;5113575;28;20197;-67
2021/12/28 04:30:55;;;;;;;50.27;6.97;;;;;;;0.87;100.00;98785.09;5112407;28;20229;-59
2021/12/28 04:33:22;;;;;;;106.57;9.83;;;;;;;0.90;100.00;98772.38;5113236;28;20221;-68
2021/12/28 04:35:49;;;;;;;258.87;15.53;;;;;;;0.99;100.00;98767.03;5113080;27;20224;-67
2021/12/28 04:38:18;;;;;;;55.67;7.37;;;;;;;0.96;100.00;98773.84;5113333;28;20201;-68
2021/12/28 04:40:45;;;;;;;123.80;11.17;;;;;;;0.96;100.00;98773.84;5113423;28;20244;-68
2021/12/28 04:43:13;;;;;;;62.57;7.80;;;;;;;0.88;100.00;98772.47;5113244;28;20599;-67
2021/12/28 04:45:40;;;;;;;31.17;6.37;;;;;;;0.80;100.00;98771.13;5112828;28;20228;-60
2021/12/28 04:48:08;;;;;;;29.60;6.27;;;;;;;0.80;100.00;98763.56;5113139;28;20201;-59
2021/12/28 04:50:38;;;;;;;17.83;5.33;;;;;;;0.85;100.00;98767.53;5112809;28;20228;-59
2021/12/28 04:53:08;;;;;;;13.00;5.00;;;;;;;0.87;100.00;98770.84;5112687;28;20718;-68
2021/12/28 04:55:38;;;;;;;21.40;5.97;;;;;;;0.87;100.00;98768.31;5113162;27;20217;-67
2021/12/28 04:58:05;;;;;;;47.37;7.87;;;;;;;0.85;100.00;98764.22;5112927;28;20634;-59
2021/12/28 05:00:32;;;;;;;42.90;6.63;;;;;;;0.85;100.00;98771.78;5112451;28;20224;-68
2021/12/28 05:03:00;;;;;;;24.83;6.80;;;;;;;0.73;100.00;98772.19;5112813;28;20197;-68
2021/12/28 05:05:27;;;;;;;55.17;7.90;;;;;;;0.75;100.00;98770.47;5112377;28;20198;-68
2021/12/28 05:07:54;;;;;;;56.13;8.27;;;;;;;0.71;100.00;98769.75;5112486;28;20201;-59
2021/12/28 05:10:21;;;;;;;67.23;7.70;;;;;;;0.76;100.00;98762.06;5112390;28;20197;-59
2021/12/28 05:12:50;;;;;;;32.57;6.37;;;;;;;0.83;100.00;98764.25;5112354;28;20228;-68
2021/12/28 05:15:18;;;;;;;17.53;5.67;;;;;;;0.80;100.00;98768.59;5112538;28;20196;-59
2021/12/28 05:17:45;;;;;;;14.03;4.80;;;;;;;0.82;100.00;98767.66;5112516;28;20200;-67
2021/12/28 05:20:13;;;;;;;17.13;5.17;;;;;;;0.82;100.00;98762.63;5112439;28;20221;-59
2021/12/28 05:22:40;;;;;;;14.00;5.20;;;;;;;0.79;100.00;98761.94;5112330;28;20702;-68
2021/12/28 05:25:07;;;;;;;16.63;5.07;;;;;;;0.80;100.00;98774.44;5112303;28;20202;-59
2021/12/28 05:27:34;;;;;;;62.67;8.37;;;;;;;0.74;100.00;98779.72;5112645;28;20202;-59
2021/12/28 05:30:05;;;;;;;94.63;9.37;;;;;;;0.79;100.00;98782.06;5112168;28;20601;-68
2021/12/28 05:32:32;;;;;;;68.83;8.20;;;;;;;0.72;100.00;98795.75;5112361;28;20237;-68
2021/12/28 05:34:59;;;;;;;98.63;9.47;;;;;;;0.74;100.00;98788.97;5112342;28;20198;-68
2021/12/28 05:37:26;;;;;;;138.00;10.90;;;;;;;0.83;100.00;98789.44;5112230;28;20232;-59
2021/12/28 05:39:53;;;;;;;41.77;7.97;;;;;;;0.80;100.00;98788.72;5111940;28;20209;-59
2021/12/28 05:42:20;;;;;;;101.57;10.13;;;;;;;0.86;100.00;98793.53;5111488;28;20706;-68
2021/12/28 05:44:47;;;;;;;36.47;7.03;;;;;;;0.82;100.00;98786.97;5111832;28;20197;-68
2021/12/28 05:47:15;;;;;;;132.00;11.87;;;;;;;0.87;100.00;98790.13;5112001;28;20222;-67
2021/12/28 05:49:42;;;;;;;18.30;5.43;;;;;;;0.80;100.00;98788.72;5111904;28;20232;-66
2021/12/28 05:52:09;;;;;;;280.87;16.83;;;;;;;0.70;100.00;98787.41;5111531;28;20243;-62
2021/12/28 05:54:35;;;;;;;58.83;7.87;;;;;;;0.76;100.00;98784.69;5111472;28;20201;-68
2021/12/28 05:57:02;;;;;;;149.53;12.07;;;;;;;0.74;100.00;98788.97;5111952;28;20631;-68
2021/12/28 05:59:29;;;;;;;44.60;8.57;;;;;;;0.73;100.00;98790.66;5111569;28;20197;-68
2021/12/28 06:01:56;;;;;;;151.73;11.60;;;;;;;0.59;100.00;98791.16;5111360;28;20228;-59
2021/12/28 06:04:25;;;;;;;129.33;10.43;;;;;;;0.70;100.00;98788.25;5111667;28;20193;-59
2021/12/28 06:06:51;;;;;;;53.73;7.43;;;;;;;0.78;100.00;98796.31;5111244;28;20224;-59
2021/12/28 06:09:18;;;;;;;77.63;9.23;;;;;;;0.77;100.00;98796.41;5111632;28;20201;-68
2021/12/28 06:11:45;;;;;;;82.13;10.03;;;;;;;0.72;100.00;98790.69;5111858;28;20224;-60
2021/12/28 06:14:12;;;;;;;118.20;10.40;;;;;;;0.72;100.00;98788.19;5111393;28;20236;-60
2021/12/28 06:16:39;;;;;;;94.87;9.17;;;;;;;0.63;100.00;98797.72;5111019;28;20684;-60
2021/12/28 06:19:06;;;;;;;114.97;9.53;;;;;;;0.61;100.00;98796.97;5111223;28;20697;-67
2021/12/28 06:21:36;;;;;;;117.57;10.00;;;;;;;0.68;100.00;98800.88;5111606;28;20478;-59
2021/12/28 06:24:04;;;;;;;95.13;10.17;;;;;;;0.76;100.00;98808.16;5111133;28;20817;-59
2021/12/28 06:26:32;;;;;;;115.90;10.20;;;;;;;0.68;100.00;98815.16;5111066;28;20228;-68
2021/12/28 06:29:00;;;;;;;63.97;8.50;;;;;;;0.61;100.00;98809.53;5111231;28;20204;-59
2021/12/28 06:31:28;;;;;;;149.57;10.97;;;;;;;0.45;100.00;98819.31;5111151;28;20236;-67
2021/12/28 06:33:56;;;;;;;129.00;9.93;;;;;;;0.47;100.00;98816.75;5111138;28;20251;-67
2021/12/28 06:36:23;;;;;;;152.73;11.77;;;;;;;0.64;100.00;98819.50;5110947;28;20277;-60
2021/12/28 06:38:51;;;;;;;68.70;7.00;;;;;;;0.67;100.00;98813.53;5111225;28;20219;-59
2021/12/28 06:41:18;;;;;;;52.10;6.90;;;;;;;0.71;100.00;98820.09;5111412;28;20228;-60
2021/12/28 06:43:47;;;;;;;61.93;9.07;;;;;;;0.73;100.00;98825.03;5111292;28;20209;-59
2021/12/28 06:46:14;;;;;;;143.43;12.20;;;;;;;0.78;100.00;98815.63;5111439;28;20294;-63
2021/12/28 06:48:41;;;;;;;248.77;13.03;;;;;;;0.93;100.00;98819.28;5111211;28;20199;-67
2021/12/28 06:51:08;;;;;;;44.23;6.57;;;;;;;0.82;100.00;98814.66;5110713;28;20221;-68
2021/12/28 06:53:35;;;;;;;84.97;8.80;;;;;;;0.79;100.00;98812.25;5111160;28;20232;-67
2021/12/28 06:56:05;;;;;;;123.57;10.97;;;;;;;0.73;100.00;98818.34;5114871;28;20216;-59
2021/12/28 06:58:32;;;;;;;78.50;7.17;;;;;;;0.70;100.00;98812.56;5115105;27;20229;-67
2021/12/28 07:00:59;;;;;;;105.27;8.83;;;;;;;0.59;100.00;98815.50;5114604;28;20228;-59
2021/12/28 07:03:26;;;;;;;76.03;7.60;;;;;;;0.62;100.00;98816.19;5115113;28;20228;-67
2021/12/28 07:05:52;;;;;;;128.87;10.33;;;;;;;0.61;100.00;98829.66;5114825;28;20221;-59
2021/12/28 07:08:19;;;;;;;192.33;10.30;;;;;;;0.76;100.00;98822.44;5115036;28;20197;-67
2021/12/28 07:10:46;;;;;;;205.07;12.70;;;;;;;0.70;100.00;98828.50;5115322;28;20223;-59
2021/12/28 07:13:15;;;;;;;229.37;12.90;;;;;;;0.67;100.00;98821.06;5114824;28;20236;-59
2021/12/28 07:15:42;;;;;;;211.93;12.27;;;;;;;0.74;100.00;98816.63;5114778;28;20875;-59
2021/12/28 07:18:09;;;;;;;173.47;11.90;;;;;;;0.67;100.00;98818.56;5114935;28;20201;-66
2021/12/28 07:20:36;;;;;;;137.20;9.40;;;;;;;0.75;100.00;98823.28;5114516;28;20218;-68
2021/12/28 07:23:03;;;;;;;98.63;7.83;;;;;;;0.79;100.00;98828.19;5114844;28;20849;-59
2021/12/28 07:25:30;;;;;;;107.10;9.43;;;;;;;0.94;100.00;98825.97;5114558;28;20224;-67
2021/12/28 07:27:57;;;;;;;194.70;9.93;;;;;;;1.06;100.00;98830.53;5114495;28;20193;-68
2021/12/28 07:30:25;;;;;;;51.97;7.40;;;;;;;0.91;100.00;98826.91;5114150;28;20201;-68
2021/12/28 07:32:52;;;;;;;153.17;10.53;;;;;;;1.04;100.00;98822.22;5114684;28;20714;-59
2021/12/28 07:35:19;;;;;;;44.77;7.03;;;;;;;1.02;100.00;98832.38;5114490;28;20201;-67
2021/12/28 07:37:46;;;;;;;89.77;8.20;;;;;;;0.99;100.00;98829.97;5114648;28;20201;-68
2021/12/28 07:40:13;;;;;;;52.33;7.90;;;;;;;0.99;100.00;98839.19;5114287;28;20776;-68
2021/12/28 07:42:41;;;;;;;42.47;7.83;;;;;;;1.09;100.00;98836.28;5114259;28;20689;-59
2021/12/28 07:45:11;;;;;;;82.33;9.27;;;;;;;1.00;100.00;98829.06;5113802;28;20211;-67
2021/12/28 07:47:40;;;;;;;127.97;9.50;;;;;;;1.09;100.00;98836.28;5114332;28;20291;-59
2021/12/28 07:50:08;;;;;;;112.10;8.83;;;;;;;1.09;100.00;98841.31;5113946;28;20197;-68
2021/12/28 07:52:35;;;;;;;92.93;8.13;;;;;;;1.14;100.00;98838.63;5114081;28;20205;-68
2021/12/28 07:55:03;;;;;;;147.47;9.43;;;;;;;1.06;100.00;98835.56;5113892;28;20193;-59
2021/12/28 07:57:30;;;;;;;88.90;8.23;;;;;;;1.15;100.00;98834.41;5114150;28;20221;-68
2021/12/28 07:59:57;;;;;;;113.97;9.37;;;;;;;1.17;100.00;98833.47;5113929;28;20220;-59
2021/12/28 08:02:24;;;;;;;117.83;9.07;;;;;;;1.15;100.00;98834.41;5113781;28;20225;-60
2021/12/28 08:04:53;;;;;;;81.50;7.83;;;;;;;1.17;100.00;98838.50;5113697;28;20197;-59
2021/12/28 08:07:19;;;;;;;18.90;5.60;;;;;;;1.13;100.00;98844.53;5113143;28;20217;-59
2021/12/28 08:09:46;;;;;;;86.90;6.70;;;;;;;1.04;100.00;98848.22;5113875;28;20197;-68
2021/12/28 08:12:13;;;;;;;68.20;6.50;;;;;;;1.04;100.00;98843.16;5113958;28;20224;-68
2021/12/28 08:14:41;;;;;;;45.73;6.57;;;;;;;0.92;100.00;98853.69;5113643;28;20240;-59
2021/12/28 08:17:08;;;;;;;67.47;6.63;;;;;;;0.90;100.00;98853.78;5113492;28;20229;-59
2021/12/28 08:19:36;;;;;;;528.23;114.90;;;;;;;0.89;100.00;98853.81;5113652;28;20201;-67
2021/12/28 08:22:05;;;;;;;164.60;35.53;;;;;;;0.94;100.00;98846.94;5113241;28;20224;-68
2021/12/28 08:24:33;;;;;;;174.97;35.87;;;;;;;1.15;100.00;98849.53;5113549;28;20228;-67
2021/12/28 08:27:00;;;;;;;114.00;10.83;;;;;;;1.31;100.00;98850.59;5113456;28;20217;-60
2021/12/28 08:29:27;;;;;;;68.23;8.57;;;;;;;1.30;100.00;98856.47;5113443;28;20208;-67
2021/12/28 08:31:54;;;;;;;24.63;7.93;;;;;;;1.27;100.00;98854.09;5113392;28;20232;-59
2021/12/28 08:34:21;;;;;;;81.90;8.97;;;;;;;1.38;100.00;98851.16;5113189;27;20228;-59
2021/12/28 08:36:48;;;;;;;77.77;7.07;;;;;;;1.45;100.00;98848.31;5113025;28;20635;-59
2021/12/28 08:39:16;;;;;;;73.90;7.10;;;;;;;1.10;100.00;98858.03;5113267;28;20197;-67
2021/12/28 08:41:43;;;;;;;49.00;6.73;;;;;;;0.69;100.00;98854.53;5113058;28;20244;-60
2021/12/28 08:44:10;;;;;;;78.50;7.50;;;;;;;0.89;100.00;98853.81;5113359;28;20212;-67
2021/12/28 08:46:37;;;;;;;38.77;5.33;;;;;;;1.00;100.00;98851.72;5113012;28;20217;-67
2021/12/28 08:49:04;;;;;;;129.60;9.20;;;;;;;1.10;100.00;98844.66;5112963;28;20231;-59
2021/12/28 08:51:31;;;;;;;70.87;7.03;;;;;;;1.25;100.00;98849.13;5113128;28;20764;-59
2021/12/28 08:53:58;;;;;;;22.13;6.40;;;;;;;1.21;100.00;98844.25;5112707;28;20236;-59
2021/12/28 08:56:26;;;;;;;60.80;7.67;;;;;;;1.39;100.00;98842.72;5113178;28;20213;-59
2021/12/28 08:58:53;;;;;;;19.73;6.63;;;;;;;1.28;100.00;98843.13;5112759;28;20194;-59
2021/12/28 09:01:21;;;;;;;98.57;9.10;;;;;;;1.39;100.00;98837.69;5112980;28;20218;-59
2021/12/28 09:03:48;;;;;;;50.53;7.67;;;;;;;1.38;100.00;98826.78;5113125;28;20205;-68
2021/12/28 09:06:15;;;;;;;68.67;8.47;;;;;;;1.46;100.00;98819.75;5113019;28;20221;-59
2021/12/28 09:08:42;;;;;;;74.93;10.97;;;;;;;1.51;100.00;98822.91;5112774;28;20292;-68
2021/12/28 09:11:09;;;;;;;39.10;8.30;;;;;;;1.50;100.00;98826.31;5112682;28;20221;-59
2021/12/28 09:13:37;;;;;;;37.10;7.80;;;;;;;1.55;100.00;98832.00;5112319;28;20747;-59
2021/12/28 09:16:05;;;;;;;53.80;11.20;;;;;;;1.68;100.00;98831.50;5112050;28;20217;-60
2021/12/28 09:18:32;;;;;;;142.80;12.20;;;;;;;1.73;100.00;98832.13;5112368;28;20197;-59
2021/12/28 09:20:59;;;;;;;58.63;7.67;;;;;;;1.62;100.00;98824.19;5112484;28;20594;-61
2021/12/28 09:23:26;;;;;;;111.70;10.73;;;;;;;1.68;100.00;98823.94;5112296;28;20701;-59
2021/12/28 09:25:53;;;;;;;128.70;11.40;;;;;;;1.83;100.00;98823.31;5111912;28;20239;-68
2021/12/28 09:28:21;;;;;;;71.30;9.63;;;;;;;1.79;100.00;98816.75;5112352;27;20205;-67
2021/12/28 09:30:49;;;;;;;110.13;24.53;;;;;;;1.83;100.00;98822.50;5112003;27;20225;-59
2021/12/28 09:33:16;;;;;;;91.27;10.93;;;;;;;1.80;100.00;98829.31;5112091;28;20710;-59
2021/12/28 09:35:43;;;;;;;43.43;8.77;;;;;;;1.86;100.00;98818.13;5112505;28;20221;-68
2021/12/28 09:38:11;;;;;;;83.77;9.27;;;;;;;1.90;100.00;98819.66;5112113;28;20197;-59
2021/12/28 09:40:38;;;;;;;40.63;7.83;;;;;;;1.82;100.00;98824.19;5111643;28;20304;-59
2021/12/28 09:43:07;;;;;;;65.43;10.40;;;;;;;1.90;100.00;98819.66;5111823;28;20216;-59
2021/12/28 09:45:34;;;;;;;133.73;12.57;;;;;;;1.90;100.00;98818.84;5111975;28;20225;-68
2021/12/28 09:48:03;;;;;;;117.80;11.40;;;;;;;1.78;100.00;98805.88;5111775;28;20197;-67
2021/12/28 09:50:30;;;;;;;88.10;10.10;;;;;;;1.77;100.00;98810.94;5111490;28;20741;-59
2021/12/28 09:52:57;;;;;;;51.43;9.20;;;;;;;1.64;100.00;98817.38;5111839;28;20197;-67
2021/12/28 09:55:25;;;;;;;50.37;9.93;;;;;;;1.51;100.00;98822.91;5111540;28;20224;-57
2021/12/28 09:57:53;;;;;;;62.13;11.27;;;;;;;1.44;100.00;98816.47;5111572;28;20201;-67
2021/12/28 10:00:22;;;;;;;34.10;8.67;;;;;;;1.38;100.00;98821.75;5111820;28;20556;-59
2021/12/28 10:02:49;;;;;;;25.53;7.60;;;;;;;1.40;100.00;98814.97;5111712;28;20202;-68
2021/12/28 10:05:20;;;;;;;33.27;7.90;;;;;;;1.61;100.00;98828.41;5111533;28;20627;-67
2021/12/28 10:07:50;;;;;;;46.10;9.10;;;;;;;1.62;100.00;98824.19;5111661;28;20224;-68
2021/12/28 10:10:18;;;;;;;57.53;9.53;;;;;;;1.76;100.00;98826.97;5111403;28;20230;-68
2021/12/28 10:12:50;;;;;;;83.87;9.70;;;;;;;1.69;100.00;98825.59;5111804;28;20208;-68
2021/12/28 10:15:19;;;;;;;44.93;9.00;;;;;;;1.81;100.00;98815.00;5111528;28;20228;-59
2021/12/28 10:17:50;;;;;;;92.97;10.30;;;;;;;1.84;100.00;98819.91;5111505;28;20204;-59
2021/12/28 10:20:21;;;;;;;53.20;9.37;;;;;;;1.90;100.00;98818.84;5111540;28;20242;-59
2021/12/28 10:22:53;;;;;;;46.60;8.47;;;;;;;1.50;100.00;98826.31;5111347;28;20186;-68
2021/12/28 10:25:22;;;;;;;39.73;7.23;;;;;;;1.56;100.00;98826.06;5111327;28;20205;-58
2021/12/28 10:27:51;;;;;;;61.37;10.67;;;;;;;1.84;100.00;98817.41;5111300;28;20197;-67
2021/12/28 10:30:21;;;;;;;81.13;9.87;;;;;;;1.95;100.00;98824.50;5110923;28;20198;-62
2021/12/28 10:32:50;;;;;;;30.27;8.97;;;;;;;2.01;100.00;98821.75;5111595;28;20224;-67
2021/12/28 10:35:20;;;;;;;50.30;11.00;;;;;;;2.06;100.00;98821.53;5111122;28;20241;-58
2021/12/28 10:37:50;;;;;;;59.13;9.60;;;;;;;2.11;100.00;98817.13;5111242;28;20674;-58
2021/12/28 10:40:24;;;;;;;31.60;9.07;;;;;;;1.94;100.00;98816.13;5111515;28;20205;-59
2021/12/28 10:42:59;;;;;;;76.37;11.03;;;;;;;2.02;100.00;98809.06;5111355;28;20185;-59
2021/12/28 10:45:28;;;;;;;56.60;9.57;;;;;;;2.01;100.00;98811.66;5111177;28;20201;-67
2021/12/28 10:47:56;;;;;;;72.23;9.77;;;;;;;2.09;100.00;98804.56;5111224;28;20205;-66
2021/12/28 10:50:29;;;;;;;64.60;10.20;;;;;;;2.15;100.00;98806.03;5111077;28;20205;-66
2021/12/28 10:53:18;;;;;;;55.40;9.20;;;;;;;1.95;100.00;98805.19;5110947;28;20288;-66
2021/12/28 10:55:47;;;;;;;82.23;10.13;;;;;;;1.95;100.00;98802.66;5109923;28;20313;-67
2021/12/28 10:58:32;;;;;;;70.20;9.10;;;;;;;1.88;100.00;98796.22;5111149;28;20208;-66
2021/12/28 11:01:09;;;;;;;88.30;11.00;;;;;;;1.91;100.00;98787.72;5110722;28;20221;-58
2021/12/28 11:03:37;;;;;;;106.17;13.57;;;;;;;1.93;100.00;98789.28;5110893;28;20193;-67
2021/12/28 11:06:18;;;;;;;45.80;8.90;;;;;;;1.96;100.00;98789.16;5110752;28;20227;-66
2021/12/28 11:08:48;;;;;;;88.80;10.57;;;;;;;2.03;100.00;98785.47;5110979;28;20198;-58
2021/12/28 11:11:18;;;;;;;69.03;10.17;;;;;;;2.03;100.00;98785.47;5111055;28;20214;-67
2021/12/28 11:13:46;;;;;;;38.07;9.27;;;;;;;1.92;100.00;98789.34;5110837;28;20681;-58
2021/12/28 11:16:15;;;;;;;36.50;9.23;;;;;;;1.74;100.00;98783.34;5111125;28;20225;-58
2021/12/28 11:18:44;;;;;;;64.07;9.20;;;;;;;1.90;100.00;98786.91;5110778;28;20197;-67
2021/12/28 11:21:15;;;;;;;39.10;8.23;;;;;;;1.96;100.00;98794.19;5110900;28;20229;-58
2021/12/28 11:23:43;;;;;;;56.47;10.33;;;;;;;1.95;100.00;98787.53;5110795;28;20596;-59